createdAt,value
2023-03-30T00:01:14.915Z,9.46
2023-03-30T00:06:21.862Z,9.41
2023-03-30T00:11:25.057Z,9.42
2023-03-30T00:16:27.593Z,9.34
2023-03-30T00:21:30.036Z,9.40
2023-03-30T00:26:33.834Z,9.34
2023-03-30T00:31:36.796Z,9.32
2023-03-30T00:36:39.219Z,9.33
2023-03-30T00:41:41.602Z,9.27
2023-03-30T00:46:43.919Z,9.37
2023-03-30T00:51:47.122Z,9.28
2023-03-30T00:56:49.485Z,9.23
2023-03-30T01:01:51.929Z,9.21
2023-03-30T01:06:57.945Z,9.18
2023-03-30T01:12:05.313Z,9.12
2023-03-30T01:17:08.543Z,9.08
2023-03-30T01:22:12.809Z,9.14
2023-03-30T01:27:16.582Z,9.16
2023-03-30T01:32:19.362Z,9.20
2023-03-30T01:37:22.330Z,9.29
2023-03-30T01:42:25.167Z,9.48
2023-03-30T01:47:34.171Z,9.59
2023-03-30T01:52:54.368Z,9.73
2023-03-30T02:03:54.998Z,9.81
2023-03-30T02:08:59.272Z,9.86
2023-03-30T02:14:01.811Z,9.94
2023-03-30T02:19:07.809Z,10.01
2023-03-30T02:24:10.303Z,10.19
2023-03-30T02:29:13.436Z,10.35
2023-03-30T02:34:15.781Z,10.47
2023-03-30T02:39:18.260Z,10.64
2023-03-30T02:44:21.422Z,10.72
2023-03-30T02:49:23.863Z,10.59
2023-03-30T02:54:36.402Z,10.36
2023-03-30T02:59:38.796Z,10.31
2023-03-30T03:04:43.471Z,10.24
2023-03-30T03:09:46.995Z,10.34
2023-03-30T03:14:49.471Z,10.21
2023-03-30T03:19:51.882Z,10.16
2023-03-30T03:24:54.470Z,9.95
2023-03-30T03:29:57.661Z,9.90
2023-03-30T03:35:00.048Z,9.85
2023-03-30T03:40:05.753Z,9.87
2023-03-30T03:45:08.344Z,9.90
2023-03-30T03:50:10.866Z,9.92
2023-03-30T03:55:23.735Z,9.97
2023-03-30T04:00:26.761Z,9.84
2023-03-30T04:05:30.464Z,9.79
2023-03-30T04:10:34.107Z,9.73
2023-03-30T04:15:39.195Z,9.73
2023-03-30T04:20:41.607Z,9.72
2023-03-30T04:25:45.752Z,9.75
2023-03-30T04:30:48.903Z,9.74
2023-03-30T04:35:51.672Z,9.76
2023-03-30T04:40:54.025Z,9.78
2023-03-30T04:45:56.752Z,9.78
2023-03-30T04:51:00.101Z,9.78
2023-03-30T04:56:06.763Z,9.80
2023-03-30T05:01:10.231Z,9.81
2023-03-30T05:06:14.086Z,9.81
2023-03-30T05:11:16.876Z,9.81
2023-03-30T05:16:20.156Z,9.83
2023-03-30T05:21:23.783Z,9.83
2023-03-30T05:26:26.509Z,9.85
2023-03-30T05:31:29.989Z,9.84
2023-03-30T05:36:32.747Z,9.88
2023-03-30T05:41:35.633Z,9.86
2023-03-30T05:46:40.953Z,9.87
2023-03-30T05:51:52.237Z,9.88
2023-03-30T05:56:55.098Z,9.92
2023-03-30T06:01:58.612Z,9.94
2023-03-30T06:07:01.286Z,10.01
2023-03-30T06:12:03.984Z,10.13
2023-03-30T06:17:07.651Z,10.19
2023-03-30T06:22:10.778Z,10.28
2023-03-30T06:27:13.106Z,10.48
2023-03-30T06:32:15.856Z,10.65
2023-03-30T06:37:18.399Z,10.61
2023-03-30T06:42:21.900Z,10.73
2023-03-30T06:47:24.414Z,10.77
2023-03-30T06:52:26.753Z,10.83
2023-03-30T06:57:30.638Z,10.93
2023-03-30T07:02:33.715Z,10.90
2023-03-30T07:07:36.087Z,10.81
2023-03-30T07:12:48.404Z,10.96
2023-03-30T07:17:50.823Z,10.99
2023-03-30T07:23:03.185Z,11.05
2023-03-30T07:28:06.346Z,11.36
2023-03-30T07:33:08.816Z,11.97
2023-03-30T07:38:11.277Z,12.39
2023-03-30T07:43:13.966Z,12.32
2023-03-30T07:48:16.567Z,12.39
2023-03-30T07:53:19.393Z,12.16
2023-03-30T07:58:22.166Z,12.10
2023-03-30T08:03:25.302Z,12.00
2023-03-30T08:08:28.687Z,11.96
2023-03-30T08:13:32.761Z,11.98
2023-03-30T08:18:37.721Z,12.23
2023-03-30T08:23:40.063Z,12.54
2023-03-30T08:28:42.446Z,13.00
2023-03-30T08:33:45.886Z,13.14
2023-03-30T08:38:48.447Z,13.61
2023-03-30T08:43:50.901Z,13.51
2023-03-30T08:48:53.323Z,13.17
2023-03-30T08:53:56.544Z,13.35
2023-03-30T08:59:00.149Z,13.46
2023-03-30T09:04:02.513Z,13.85
2023-03-30T09:09:05.895Z,14.21
2023-03-30T09:14:08.279Z,14.70
2023-03-30T09:19:12.775Z,15.40
2023-03-30T09:24:16.103Z,15.84
2023-03-30T09:29:19.473Z,15.90
2023-03-30T09:34:22.999Z,16.18
2023-03-30T09:39:25.349Z,16.80
2023-03-30T09:44:28.550Z,17.02
2023-03-30T09:49:33.459Z,16.88
2023-03-30T09:54:37.245Z,16.82
2023-03-30T09:59:39.631Z,17.03
2023-03-30T10:04:43.093Z,17.02
2023-03-30T10:09:46.419Z,16.84
2023-03-30T10:14:49.206Z,17.00
2023-03-30T10:19:55.434Z,17.24
2023-03-30T10:25:09.910Z,17.46
2023-03-30T10:30:12.517Z,17.17
2023-03-30T10:35:18.265Z,17.09
2023-03-30T10:40:30.716Z,16.68
2023-03-30T10:45:43.528Z,15.98
2023-03-30T10:50:46.445Z,15.42
2023-03-30T10:55:49.046Z,15.16
2023-03-30T11:01:01.401Z,14.68
2023-03-30T11:06:06.316Z,14.28
2023-03-30T11:11:19.101Z,14.40
2023-03-30T11:16:21.882Z,14.64
2023-03-30T11:21:24.395Z,14.74
2023-03-30T11:26:36.715Z,14.13
2023-03-30T11:31:40.104Z,13.82
2023-03-30T11:36:43.083Z,12.90
2023-03-30T11:41:45.808Z,12.13
2023-03-30T11:46:49.268Z,11.72
2023-03-30T11:51:52.669Z,11.59
2023-03-30T11:56:55.421Z,11.36
2023-03-30T12:01:58.650Z,10.96
2023-03-30T12:07:00.978Z,10.64
2023-03-30T12:12:03.672Z,10.32
2023-03-30T12:17:06.828Z,10.08
2023-03-30T12:22:09.512Z,9.89
2023-03-30T12:27:12.249Z,9.83
2023-03-30T12:32:14.957Z,9.82
2023-03-30T12:37:18.289Z,9.81
2023-03-30T12:42:26.653Z,9.93
2023-03-30T12:47:31.078Z,10.06
2023-03-30T12:52:34.445Z,10.13
2023-03-30T12:57:37.734Z,10.19
2023-03-30T13:02:41.028Z,10.31
2023-03-30T13:07:44.178Z,10.27
2023-03-30T13:12:49.306Z,10.26
2023-03-30T13:17:51.863Z,10.21
2023-03-30T13:22:54.595Z,10.29
2023-03-30T13:27:57.333Z,10.38
2023-03-30T13:33:00.051Z,10.41
2023-03-30T13:38:03.768Z,10.38
2023-03-30T13:43:16.143Z,10.50
2023-03-30T13:48:19.399Z,10.50
2023-03-30T13:53:23.851Z,10.59
2023-03-30T13:58:26.965Z,10.55
2023-03-30T14:03:29.895Z,10.53
2023-03-30T14:08:35.557Z,10.40
2023-03-30T14:13:37.952Z,10.31
2023-03-30T14:18:40.584Z,10.38
2023-03-30T14:23:42.867Z,10.36
2023-03-30T14:28:45.203Z,10.47
2023-03-30T14:33:48.332Z,10.43
2023-03-30T14:38:51.404Z,10.45
2023-03-30T14:43:53.810Z,10.67
2023-03-30T14:48:56.185Z,10.95
2023-03-30T14:53:58.518Z,11.25
2023-03-30T14:59:01.169Z,11.70
2023-03-30T15:04:03.607Z,12.03
2023-03-30T15:09:06.767Z,11.85
2023-03-30T15:14:09.716Z,11.82
2023-03-30T15:19:12.115Z,11.44
2023-03-30T15:24:14.785Z,11.34
2023-03-30T15:29:17.120Z,11.30
2023-03-30T15:34:19.536Z,11.34
2023-03-30T15:39:22.197Z,11.36
2023-03-30T15:44:24.875Z,11.47
2023-03-30T15:49:27.198Z,11.56
2023-03-30T15:54:30.322Z,11.61
2023-03-30T15:59:32.657Z,11.78
2023-03-30T16:04:35.956Z,11.64
2023-03-30T16:09:40.121Z,11.44
2023-03-30T16:14:43.934Z,11.37
2023-03-30T16:19:46.554Z,11.53
2023-03-30T16:24:50.889Z,11.53
2023-03-30T16:29:53.520Z,11.32
2023-03-30T16:34:56.184Z,11.15
2023-03-30T16:39:59.326Z,10.86
2023-03-30T16:45:01.721Z,10.65
2023-03-30T16:50:04.722Z,10.50
2023-03-30T16:55:15.527Z,10.38
2023-03-30T17:00:18.233Z,10.26
2023-03-30T17:05:21.545Z,10.16
2023-03-30T17:10:24.203Z,10.04
2023-03-30T17:15:27.395Z,10.07
2023-03-30T17:20:30.531Z,10.06
2023-03-30T17:25:36.110Z,10.08
2023-03-30T17:30:40.418Z,10.24
2023-03-30T17:35:43.062Z,10.20
2023-03-30T17:40:47.062Z,10.29
2023-03-30T17:45:49.876Z,10.23
2023-03-30T17:50:52.747Z,10.08
2023-03-30T17:55:55.524Z,9.90
2023-03-30T18:00:59.803Z,9.82
2023-03-30T18:06:02.184Z,9.77
2023-03-30T18:11:05.792Z,9.67
2023-03-30T18:16:08.317Z,9.62
2023-03-30T18:21:10.805Z,9.79
2023-03-30T18:26:13.989Z,9.70
2023-03-30T18:31:17.040Z,9.67
2023-03-30T18:36:19.541Z,9.69
2023-03-30T18:41:21.930Z,9.62
2023-03-30T18:46:25.031Z,9.63
2023-03-30T18:51:27.748Z,9.57
2023-03-30T18:56:31.291Z,9.54
2023-03-30T19:01:34.472Z,9.48
2023-03-30T19:06:38.115Z,9.42
2023-03-30T19:11:40.879Z,9.40
2023-03-30T19:16:43.522Z,9.32
2023-03-30T19:21:46.716Z,9.20
2023-03-30T19:26:49.862Z,9.13
2023-03-30T19:31:52.796Z,9.11
2023-03-30T19:36:55.172Z,9.05
2023-03-30T19:41:58.673Z,9.05
2023-03-30T19:47:01.138Z,9.11
2023-03-30T19:52:04.098Z,9.25
2023-03-30T19:57:08.768Z,9.52
2023-03-30T20:02:13.400Z,9.61
2023-03-30T20:07:15.784Z,9.23
2023-03-30T20:12:18.110Z,8.94
2023-03-30T20:17:21.938Z,8.92
2023-03-30T20:22:25.589Z,8.84
2023-03-30T20:27:28.575Z,8.80
2023-03-30T20:32:40.493Z,8.66
2023-03-30T20:37:42.932Z,8.65
2023-03-30T20:42:48.073Z,8.72
2023-03-30T20:47:51.426Z,8.68
2023-03-30T20:52:54.766Z,8.57
2023-03-30T20:57:58.654Z,8.61
2023-03-30T21:03:01.918Z,8.45
2023-03-30T21:08:07.693Z,8.46
2023-03-30T21:13:10.870Z,8.51
2023-03-30T21:18:13.325Z,8.51
2023-03-30T21:23:15.997Z,8.42
2023-03-30T21:28:19.030Z,8.37
2023-03-30T21:33:22.168Z,8.39
2023-03-30T21:38:24.857Z,8.36
2023-03-30T21:43:27.955Z,8.42
2023-03-30T21:48:31.164Z,8.32
2023-03-30T21:53:43.431Z,8.05
2023-03-30T21:58:46.619Z,7.86
2023-03-30T22:03:50.288Z,7.74
2023-03-30T22:09:02.702Z,7.58
2023-03-30T22:14:05.183Z,7.43
2023-03-30T22:19:07.614Z,7.35
2023-03-30T22:24:09.886Z,7.28
2023-03-30T22:29:13.039Z,7.20
2023-03-30T22:34:15.357Z,7.12
2023-03-30T22:39:18.285Z,7.21
2023-03-30T22:44:21.364Z,7.17
2023-03-30T22:49:24.799Z,7.26
2023-03-30T22:54:27.886Z,7.28
2023-03-30T22:59:32.007Z,7.29
2023-03-30T23:04:36.130Z,7.33
2023-03-30T23:09:38.633Z,7.44
2023-03-30T23:14:42.999Z,7.41
2023-03-30T23:19:46.181Z,7.51
2023-03-30T23:24:49.400Z,7.48
2023-03-30T23:29:52.742Z,7.53
2023-03-30T23:34:55.311Z,7.54
2023-03-30T23:40:01.505Z,7.55
2023-03-30T23:45:04.034Z,7.42
2023-03-30T23:50:07.618Z,7.22
2023-03-30T23:55:10.734Z,7.14
